sensor_id;sensor_type;location;lat;lon;timestamp;pressure;altitude;pressure_sealevel;temperature
73734;BMP280;62039;50.000;9.064;2022-12-01T00:01:43;101088.69;;;5.56
73734;BMP280;62039;50.000;9.064;2022-12-01T00:04:10;101092.22;;;5.55
73734;BMP280;62039;50.000;9.064;2022-12-01T00:06:38;101087.88;;;5.56
73734;BMP280;62039;50.000;9.064;2022-12-01T00:09:04;101094.13;;;5.53
73734;BMP280;62039;50.000;9.064;2022-12-01T00:11:32;101089.34;;;5.47
73734;BMP280;62039;50.000;9.064;2022-12-01T00:13:59;101082.84;;;5.41
73734;BMP280;62039;50.000;9.064;2022-12-01T00:16:25;101089.19;;;5.37
73734;BMP280;62039;50.000;9.064;2022-12-01T00:18:52;101092.09;;;5.33
73734;BMP280;62039;50.000;9.064;2022-12-01T00:21:21;101084.44;;;5.31
73734;BMP280;62039;50.000;9.064;2022-12-01T00:23:51;101092.19;;;5.31
73734;BMP280;62039;50.000;9.064;2022-12-01T00:26:19;101090.44;;;5.32
73734;BMP280;62039;50.000;9.064;2022-12-01T00:28:47;101093.88;;;5.32
73734;BMP280;62039;50.000;9.064;2022-12-01T00:31:14;101088.69;;;5.32
73734;BMP280;62039;50.000;9.064;2022-12-01T00:33:40;101091.97;;;5.34
73734;BMP280;62039;50.000;9.064;2022-12-01T00:36:08;101091.03;;;5.35
73734;BMP280;62039;50.000;9.064;2022-12-01T00:38:34;101094.38;;;5.37
73734;BMP280;62039;50.000;9.064;2022-12-01T00:41:03;101096.84;;;5.39
73734;BMP280;62039;50.000;9.064;2022-12-01T00:43:29;101099.53;;;5.37
73734;BMP280;62039;50.000;9.064;2022-12-01T00:45:56;101104.00;;;5.35
73734;BMP280;62039;50.000;9.064;2022-12-01T00:48:23;101099.75;;;5.34
73734;BMP280;62039;50.000;9.064;2022-12-01T00:50:51;101095.38;;;5.35
73734;BMP280;62039;50.000;9.064;2022-12-01T00:53:18;101105.75;;;5.35
73734;BMP280;62039;50.000;9.064;2022-12-01T00:55:44;101101.41;;;5.35
73734;BMP280;62039;50.000;9.064;2022-12-01T00:58:12;101101.41;;;5.35
73734;BMP280;62039;50.000;9.064;2022-12-01T01:00:39;101104.94;;;5.34
73734;BMP280;62039;50.000;9.064;2022-12-01T01:03:06;101106.81;;;5.32
73734;BMP280;62039;50.000;9.064;2022-12-01T01:05:34;101103.50;;;5.30
73734;BMP280;62039;50.000;9.064;2022-12-01T01:08:00;101107.13;;;5.28
73734;BMP280;62039;50.000;9.064;2022-12-01T01:10:27;101107.13;;;5.28
73734;BMP280;62039;50.000;9.064;2022-12-01T01:12:54;101110.53;;;5.28
73734;BMP280;62039;50.000;9.064;2022-12-01T01:15:22;101106.28;;;5.27
73734;BMP280;62039;50.000;9.064;2022-12-01T01:17:48;101112.44;;;5.26
73734;BMP280;62039;50.000;9.064;2022-12-01T01:20:15;101110.78;;;5.25
73734;BMP280;62039;50.000;9.064;2022-12-01T01:22:42;101118.66;;;5.24
73734;BMP280;62039;50.000;9.064;2022-12-01T01:25:08;101109.31;;;5.21
73734;BMP280;62039;50.000;9.064;2022-12-01T01:27:35;101109.53;;;5.18
73734;BMP280;62039;50.000;9.064;2022-12-01T01:30:02;101115.75;;;5.16
73734;BMP280;62039;50.000;9.064;2022-12-01T01:32:30;101107.16;;;5.15
73734;BMP280;62039;50.000;9.064;2022-12-01T01:34:57;101121.84;;;5.15
73734;BMP280;62039;50.000;9.064;2022-12-01T01:37:24;101114.09;;;5.15
73734;BMP280;62039;50.000;9.064;2022-12-01T01:39:50;101120.19;;;5.14
73734;BMP280;62039;50.000;9.064;2022-12-01T01:42:18;101117.72;;;5.12
73734;BMP280;62039;50.000;9.064;2022-12-01T01:44:50;101114.28;;;5.12
73734;BMP280;62039;50.000;9.064;2022-12-01T01:47:19;101120.59;;;5.07
73734;BMP280;62039;50.000;9.064;2022-12-01T01:49:48;101123.41;;;5.04
73734;BMP280;62039;50.000;9.064;2022-12-01T01:52:16;101126.19;;;5.01
73734;BMP280;62039;50.000;9.064;2022-12-01T01:54:46;101124.53;;;5.00
73734;BMP280;62039;50.000;9.064;2022-12-01T01:57:15;101126.41;;;4.98
73734;BMP280;62039;50.000;9.064;2022-12-01T01:59:49;101123.00;;;4.98
73734;BMP280;62039;50.000;9.064;2022-12-01T02:02:17;101121.44;;;4.95
73734;BMP280;62039;50.000;9.064;2022-12-01T02:04:46;101127.53;;;4.94
73734;BMP280;62039;50.000;9.064;2022-12-01T02:07:17;101125.88;;;4.93
73734;BMP280;62039;50.000;9.064;2022-12-01T02:09:44;101124.25;;;4.92
73734;BMP280;62039;50.000;9.064;2022-12-01T02:12:21;101120.69;;;4.93
73734;BMP280;62039;50.000;9.064;2022-12-01T02:15:02;101124.25;;;4.92
73734;BMP280;62039;50.000;9.064;2022-12-01T02:17:37;101123.28;;;4.93
73734;BMP280;62039;50.000;9.064;2022-12-01T02:20:25;101127.53;;;4.94
73734;BMP280;62039;50.000;9.064;2022-12-01T02:26:09;101121.66;;;4.92
73734;BMP280;62039;50.000;9.064;2022-12-01T02:28:53;101119.06;;;4.92
73734;BMP280;62039;50.000;9.064;2022-12-01T02:31:26;101123.28;;;4.93
73734;BMP280;62039;50.000;9.064;2022-12-01T02:33:58;101122.38;;;4.94
73734;BMP280;62039;50.000;9.064;2022-12-01T02:36:33;101118.00;;;4.95
73734;BMP280;62039;50.000;9.064;2022-12-01T02:39:05;101120.50;;;4.96
73734;BMP280;62039;50.000;9.064;2022-12-01T02:41:35;101121.25;;;4.98
73734;BMP280;62039;50.000;9.064;2022-12-01T02:44:07;101124.66;;;4.99
73734;BMP280;62039;50.000;9.064;2022-12-01T02:46:40;101122.06;;;4.99
73734;BMP280;62039;50.000;9.064;2022-12-01T02:49:13;101129.00;;;4.98
73734;BMP280;62039;50.000;9.064;2022-12-01T02:51:42;101120.41;;;4.98
73734;BMP280;62039;50.000;9.064;2022-12-01T02:54:11;101132.53;;;4.97
73734;BMP280;62039;50.000;9.064;2022-12-01T02:56:38;101123.81;;;4.98
73734;BMP280;62039;50.000;9.064;2022-12-01T02:59:08;101125.50;;;4.99
73734;BMP280;62039;50.000;9.064;2022-12-01T03:01:44;101123.00;;;4.98
73734;BMP280;62039;50.000;9.064;2022-12-01T03:04:34;101120.50;;;4.96
73734;BMP280;62039;50.000;9.064;2022-12-01T03:07:07;101121.53;;;4.94
73734;BMP280;62039;50.000;9.064;2022-12-01T03:09:44;101120.81;;;4.92
73734;BMP280;62039;50.000;9.064;2022-12-01T03:12:18;101124.44;;;4.89
73734;BMP280;62039;50.000;9.064;2022-12-01T03:14:51;101122.06;;;4.86
73734;BMP280;62039;50.000;9.064;2022-12-01T03:17:27;101106.84;;;4.82
73734;BMP280;62039;50.000;9.064;2022-12-01T03:19:59;101108.06;;;4.76
73734;BMP280;62039;50.000;9.064;2022-12-01T03:22:33;101107.34;;;4.74
73734;BMP280;62039;50.000;9.064;2022-12-01T03:25:03;101100.72;;;4.70
73734;BMP280;62039;50.000;9.064;2022-12-01T03:27:34;101099.28;;;4.66
73734;BMP280;62039;50.000;9.064;2022-12-01T03:30:03;101103.91;;;4.61
73734;BMP280;62039;50.000;9.064;2022-12-01T03:32:33;101106.00;;;4.56
73734;BMP280;62039;50.000;9.064;2022-12-01T03:35:05;101108.78;;;4.53
73734;BMP280;62039;50.000;9.064;2022-12-01T03:37:36;101098.66;;;4.50
73734;BMP280;62039;50.000;9.064;2022-12-01T03:40:08;101103.31;;;4.45
73734;BMP280;62039;50.000;9.064;2022-12-01T03:42:38;101099.34;;;4.39
73734;BMP280;62039;50.000;9.064;2022-12-01T03:45:10;101100.38;;;4.37
73734;BMP280;62039;50.000;9.064;2022-12-01T03:47:40;101104.91;;;4.33
73734;BMP280;62039;50.000;9.064;2022-12-01T03:50:09;101102.47;;;4.32
73734;BMP280;62039;50.000;9.064;2022-12-01T03:52:39;101105.13;;;4.30
73734;BMP280;62039;50.000;9.064;2022-12-01T03:55:12;101112.16;;;4.28
73734;BMP280;62039;50.000;9.064;2022-12-01T03:57:43;101113.22;;;4.25
73734;BMP280;62039;50.000;9.064;2022-12-01T04:00:12;101115.97;;;4.22
73734;BMP280;62039;50.000;9.064;2022-12-01T04:02:41;101123.00;;;4.20
73734;BMP280;62039;50.000;9.064;2022-12-01T04:05:08;101118.03;;;4.17
73734;BMP280;62039;50.000;9.064;2022-12-01T04:07:35;101126.91;;;4.13
73734;BMP280;62039;50.000;9.064;2022-12-01T04:10:01;101133.00;;;4.12
73734;BMP280;62039;50.000;9.064;2022-12-01T04:12:28;101133.97;;;4.11
73734;BMP280;62039;50.000;9.064;2022-12-01T04:14:55;101134.97;;;4.09
73734;BMP280;62039;50.000;9.064;2022-12-01T04:17:22;101141.91;;;4.08
73734;BMP280;62039;50.000;9.064;2022-12-01T04:19:50;101136.72;;;4.08
73734;BMP280;62039;50.000;9.064;2022-12-01T04:22:17;101137.56;;;4.09
73734;BMP280;62039;50.000;9.064;2022-12-01T04:24:44;101140.97;;;4.09
73734;BMP280;62039;50.000;9.064;2022-12-01T04:27:11;101135.06;;;4.07
73734;BMP280;62039;50.000;9.064;2022-12-01T04:29:38;101132.38;;;4.09
73734;BMP280;62039;50.000;9.064;2022-12-01T04:32:05;101134.06;;;4.10
73734;BMP280;62039;50.000;9.064;2022-12-01T04:34:31;101132.38;;;4.09
73734;BMP280;62039;50.000;9.064;2022-12-01T04:37:00;101134.97;;;4.09
73734;BMP280;62039;50.000;9.064;2022-12-01T04:39:26;101129.19;;;4.05
73734;BMP280;62039;50.000;9.064;2022-12-01T04:41:53;101131.03;;;4.03
73734;BMP280;62039;50.000;9.064;2022-12-01T04:44:19;101137.97;;;4.03
73734;BMP280;62039;50.000;9.064;2022-12-01T04:46:46;101139.72;;;4.02
73734;BMP280;62039;50.000;9.064;2022-12-01T04:49:13;101133.78;;;4.00
73734;BMP280;62039;50.000;9.064;2022-12-01T04:51:39;101139.91;;;3.99
73734;BMP280;62039;50.000;9.064;2022-12-01T04:54:07;101135.69;;;3.98
73734;BMP280;62039;50.000;9.064;2022-12-01T04:56:34;101140.09;;;3.96
73734;BMP280;62039;50.000;9.064;2022-12-01T04:59:00;101146.19;;;3.95
73734;BMP280;62039;50.000;9.064;2022-12-01T05:01:27;101142.78;;;3.95
73734;BMP280;62039;50.000;9.064;2022-12-01T05:03:54;101151.47;;;3.94
73734;BMP280;62039;50.000;9.064;2022-12-01T05:06:22;101151.53;;;3.92
73734;BMP280;62039;50.000;9.064;2022-12-01T05:08:49;101153.44;;;3.90
73734;BMP280;62039;50.000;9.064;2022-12-01T05:11:18;101147.59;;;3.86
73734;BMP280;62039;50.000;9.064;2022-12-01T05:13:46;101157.22;;;3.84
73734;BMP280;62039;50.000;9.064;2022-12-01T05:16:15;101158.16;;;3.83
73734;BMP280;62039;50.000;9.064;2022-12-01T05:18:42;101157.31;;;3.83
73734;BMP280;62039;50.000;9.064;2022-12-01T05:21:10;101162.50;;;3.83
73734;BMP280;62039;50.000;9.064;2022-12-01T05:23:37;101160.81;;;3.82
73734;BMP280;62039;50.000;9.064;2022-12-01T05:26:05;101160.81;;;3.82
73734;BMP280;62039;50.000;9.064;2022-12-01T05:28:34;101153.06;;;3.82
73734;BMP280;62039;50.000;9.064;2022-12-01T05:31:01;101158.31;;;3.80
73734;BMP280;62039;50.000;9.064;2022-12-01T05:33:28;101159.16;;;3.81
73734;BMP280;62039;50.000;9.064;2022-12-01T05:35:55;101155.84;;;3.79
73734;BMP280;62039;50.000;9.064;2022-12-01T05:38:22;101160.38;;;3.75
73734;BMP280;62039;50.000;9.064;2022-12-01T05:40:49;101157.09;;;3.72
73734;BMP280;62039;50.000;9.064;2022-12-01T05:43:16;101156.41;;;3.70
73734;BMP280;62039;50.000;9.064;2022-12-01T05:45:44;101163.41;;;3.68
73734;BMP280;62039;50.000;9.064;2022-12-01T05:48:10;101165.25;;;3.66
73734;BMP280;62039;50.000;9.064;2022-12-01T05:50:38;101159.38;;;3.64
73734;BMP280;62039;50.000;9.064;2022-12-01T05:53:05;101165.44;;;3.63
73734;BMP280;62039;50.000;9.064;2022-12-01T05:55:31;101164.72;;;3.61
73734;BMP280;62039;50.000;9.064;2022-12-01T05:57:58;101174.31;;;3.59
73734;BMP280;62039;50.000;9.064;2022-12-01T06:00:25;101175.25;;;3.58
73734;BMP280;62039;50.000;9.064;2022-12-01T06:02:53;101182.34;;;3.54
73734;BMP280;62039;50.000;9.064;2022-12-01T06:05:19;101182.53;;;3.51
73734;BMP280;62039;50.000;9.064;2022-12-01T06:07:46;101186.97;;;3.49
73734;BMP280;62039;50.000;9.064;2022-12-01T06:10:13;101196.38;;;3.50
73734;BMP280;62039;50.000;9.064;2022-12-01T06:12:39;101196.31;;;3.51
73734;BMP280;62039;50.000;9.064;2022-12-01T06:15:07;101195.34;;;3.52
73734;BMP280;62039;50.000;9.064;2022-12-01T06:17:34;101196.19;;;3.53
73734;BMP280;62039;50.000;9.064;2022-12-01T06:20:09;101186.69;;;3.53
73734;BMP280;62039;50.000;9.064;2022-12-01T06:22:35;101186.59;;;3.55
73734;BMP280;62039;50.000;9.064;2022-12-01T06:25:02;101194.25;;;3.57
73734;BMP280;62039;50.000;9.064;2022-12-01T06:27:29;101192.59;;;3.56
73734;BMP280;62039;50.000;9.064;2022-12-01T06:29:55;101193.50;;;3.55
73734;BMP280;62039;50.000;9.064;2022-12-01T06:32:22;101201.34;;;3.53
73734;BMP280;62039;50.000;9.064;2022-12-01T06:34:49;101204.06;;;3.51
73734;BMP280;62039;50.000;9.064;2022-12-01T06:37:17;101204.22;;;3.48
73734;BMP280;62039;50.000;9.064;2022-12-01T06:39:43;101210.41;;;3.46
73734;BMP280;62039;50.000;9.064;2022-12-01T06:42:10;101206.25;;;3.43
73734;BMP280;62039;50.000;9.064;2022-12-01T06:44:37;101214.94;;;3.42
73734;BMP280;62039;50.000;9.064;2022-12-01T06:47:03;101214.94;;;3.42
73734;BMP280;62039;50.000;9.064;2022-12-01T06:49:30;101216.75;;;3.40
73734;BMP280;62039;50.000;9.064;2022-12-01T06:51:56;101218.59;;;3.38
73734;BMP280;62039;50.000;9.064;2022-12-01T06:54:27;101222.13;;;3.37
73734;BMP280;62039;50.000;9.064;2022-12-01T06:56:54;101223.97;;;3.35
73734;BMP280;62039;50.000;9.064;2022-12-01T06:59:21;101221.47;;;3.34
73734;BMP280;62039;50.000;9.064;2022-12-01T07:01:48;101220.63;;;3.33
73734;BMP280;62039;50.000;9.064;2022-12-01T07:04:14;101223.31;;;3.32
73734;BMP280;62039;50.000;9.064;2022-12-01T07:06:41;101218.25;;;3.30
73734;BMP280;62039;50.000;9.064;2022-12-01T07:09:07;101222.50;;;3.31
73734;BMP280;62039;50.000;9.064;2022-12-01T07:11:35;101220.63;;;3.33
73734;BMP280;62039;50.000;9.064;2022-12-01T07:14:02;101224.88;;;3.34
73734;BMP280;62039;50.000;9.064;2022-12-01T07:16:28;101222.13;;;3.37
73734;BMP280;62039;50.000;9.064;2022-12-01T07:18:55;101227.09;;;3.40
73734;BMP280;62039;50.000;9.064;2022-12-01T07:21:22;101223.50;;;3.43
73734;BMP280;62039;50.000;9.064;2022-12-01T07:23:48;101231.91;;;3.46
73734;BMP280;62039;50.000;9.064;2022-12-01T07:26:17;101227.41;;;3.50
73734;BMP280;62039;50.000;9.064;2022-12-01T07:28:45;101234.84;;;3.55
73734;BMP280;62039;50.000;9.064;2022-12-01T07:31:13;101227.03;;;3.56
73734;BMP280;62039;50.000;9.064;2022-12-01T07:33:40;101237.97;;;3.60
73734;BMP280;62039;50.000;9.064;2022-12-01T07:36:08;101238.81;;;3.60
73734;BMP280;62039;50.000;9.064;2022-12-01T07:38:35;101232.66;;;3.63
73734;BMP280;62039;50.000;9.064;2022-12-01T07:41:02;101246.31;;;3.65
73734;BMP280;62039;50.000;9.064;2022-12-01T07:43:29;101244.44;;;3.67
73734;BMP280;62039;50.000;9.064;2022-12-01T07:46:05;101245.09;;;3.70
73734;BMP280;62039;50.000;9.064;2022-12-01T07:48:32;101242.41;;;3.72
73734;BMP280;62039;50.000;9.064;2022-12-01T07:50:59;101243.19;;;3.74
73734;BMP280;62039;50.000;9.064;2022-12-01T07:53:25;101242.91;;;3.78
73734;BMP280;62039;50.000;9.064;2022-12-01T07:55:52;101245.38;;;3.80
73734;BMP280;62039;50.000;9.064;2022-12-01T07:58:18;101241.78;;;3.82
73734;BMP280;62039;50.000;9.064;2022-12-01T08:00:45;101240.88;;;3.83
73734;BMP280;62039;50.000;9.064;2022-12-01T08:03:13;101239.13;;;3.84
73734;BMP280;62039;50.000;9.064;2022-12-01T08:05:40;101239.84;;;3.86
73734;BMP280;62039;50.000;9.064;2022-12-01T08:08:07;101233.66;;;3.88
73734;BMP280;62039;50.000;9.064;2022-12-01T08:10:34;101231.81;;;3.90
73734;BMP280;62039;50.000;9.064;2022-12-01T08:13:00;101233.38;;;3.93
73734;BMP280;62039;50.000;9.064;2022-12-01T08:15:27;101234.09;;;3.95
73734;BMP280;62039;50.000;9.064;2022-12-01T08:17:54;101230.59;;;3.96
73734;BMP280;62039;50.000;9.064;2022-12-01T08:20:21;101232.19;;;3.99
73734;BMP280;62039;50.000;9.064;2022-12-01T08:22:49;101236.41;;;4.00
73734;BMP280;62039;50.000;9.064;2022-12-01T08:25:16;101237.22;;;4.00
73734;BMP280;62039;50.000;9.064;2022-12-01T08:27:42;101237.97;;;4.02
73734;BMP280;62039;50.000;9.064;2022-12-01T08:30:10;101236.22;;;4.03
73734;BMP280;62039;50.000;9.064;2022-12-01T08:32:36;101247.41;;;4.03
73734;BMP280;62039;50.000;9.064;2022-12-01T08:35:03;101253.31;;;4.05
73734;BMP280;62039;50.000;9.064;2022-12-01T08:37:32;101250.72;;;4.05
73734;BMP280;62039;50.000;9.064;2022-12-01T08:39:58;101250.72;;;4.05
73734;BMP280;62039;50.000;9.064;2022-12-01T08:42:25;101248.13;;;4.05
73734;BMP280;62039;50.000;9.064;2022-12-01T08:44:51;101250.72;;;4.05
73734;BMP280;62039;50.000;9.064;2022-12-01T08:47:18;101242.97;;;4.05
73734;BMP280;62039;50.000;9.064;2022-12-01T08:49:44;101243.91;;;4.04
73734;BMP280;62039;50.000;9.064;2022-12-01T08:52:11;101241.31;;;4.04
73734;BMP280;62039;50.000;9.064;2022-12-01T08:54:39;101249.91;;;4.05
73734;BMP280;62039;50.000;9.064;2022-12-01T08:57:06;101242.22;;;4.03
73734;BMP280;62039;50.000;9.064;2022-12-01T08:59:33;101241.41;;;4.03
73734;BMP280;62039;50.000;9.064;2022-12-01T09:01:59;101239.63;;;4.03
73734;BMP280;62039;50.000;9.064;2022-12-01T09:04:32;101249.91;;;4.05
73734;BMP280;62039;50.000;9.064;2022-12-01T09:06:58;101231.69;;;4.06
73734;BMP280;62039;50.000;9.064;2022-12-01T09:09:26;101243.69;;;4.07
73734;BMP280;62039;50.000;9.064;2022-12-01T09:11:55;101237.50;;;4.10
73734;BMP280;62039;50.000;9.064;2022-12-01T09:14:22;101230.66;;;4.09
73734;BMP280;62039;50.000;9.064;2022-12-01T09:16:49;101234.81;;;4.11
73734;BMP280;62039;50.000;9.064;2022-12-01T09:19:17;101232.25;;;4.11
73734;BMP280;62039;50.000;9.064;2022-12-01T09:21:50;101230.38;;;4.13
73734;BMP280;62039;50.000;9.064;2022-12-01T09:24:17;101234.63;;;4.14
73734;BMP280;62039;50.000;9.064;2022-12-01T09:26:43;101233.69;;;4.15
73734;BMP280;62039;50.000;9.064;2022-12-01T09:29:13;101224.94;;;4.18
73734;BMP280;62039;50.000;9.064;2022-12-01T09:31:41;101222.22;;;4.19
73734;BMP280;62039;50.000;9.064;2022-12-01T09:34:11;101222.97;;;4.21
73734;BMP280;62039;50.000;9.064;2022-12-01T09:36:38;101219.44;;;4.22
73734;BMP280;62039;50.000;9.064;2022-12-01T09:39:06;101213.34;;;4.23
73734;BMP280;62039;50.000;9.064;2022-12-01T09:41:36;101213.34;;;4.23
73734;BMP280;62039;50.000;9.064;2022-12-01T09:44:13;101216.03;;;4.22
73734;BMP280;62039;50.000;9.064;2022-12-01T09:46:45;101214.28;;;4.22
73734;BMP280;62039;50.000;9.064;2022-12-01T09:49:16;101215.84;;;4.25
73734;BMP280;62039;50.000;9.064;2022-12-01T09:51:43;101212.97;;;4.29
73734;BMP280;62039;50.000;9.064;2022-12-01T09:54:12;101213.56;;;4.33
73734;BMP280;62039;50.000;9.064;2022-12-01T09:56:43;101212.56;;;4.36
73734;BMP280;62039;50.000;9.064;2022-12-01T09:59:17;101213.19;;;4.39
73734;BMP280;62039;50.000;9.064;2022-12-01T10:01:48;101205.31;;;4.41
73734;BMP280;62039;50.000;9.064;2022-12-01T10:04:18;101203.47;;;4.43
73734;BMP280;62039;50.000;9.064;2022-12-01T10:06:49;101204.94;;;4.47
73734;BMP280;62039;50.000;9.064;2022-12-01T10:09:20;101199.56;;;4.50
73734;BMP280;62039;50.000;9.064;2022-12-01T10:11:52;101197.72;;;4.52
73734;BMP280;62039;50.000;9.064;2022-12-01T10:14:21;101198.34;;;4.55
73734;BMP280;62039;50.000;9.064;2022-12-01T10:16:54;101198.03;;;4.60
73734;BMP280;62039;50.000;9.064;2022-12-01T10:19:26;101188.41;;;4.62
73734;BMP280;62039;50.000;9.064;2022-12-01T10:22:11;101186.56;;;4.64
73734;BMP280;62039;50.000;9.064;2022-12-01T10:24:52;101189.88;;;4.66
73734;BMP280;62039;50.000;9.064;2022-12-01T10:27:29;101181.06;;;4.68
73734;BMP280;62039;50.000;9.064;2022-12-01T10:30:04;101184.31;;;4.72
73734;BMP280;62039;50.000;9.064;2022-12-01T10:32:37;101179.75;;;4.76
73734;BMP280;62039;50.000;9.064;2022-12-01T10:35:09;101178.72;;;4.78
73734;BMP280;62039;50.000;9.064;2022-12-01T10:37:37;101177.66;;;4.81
73734;BMP280;62039;50.000;9.064;2022-12-01T10:40:05;101173.13;;;4.84
73734;BMP280;62039;50.000;9.064;2022-12-01T10:42:40;101171.16;;;4.88
73734;BMP280;62039;50.000;9.064;2022-12-01T10:45:14;101169.19;;;4.91
73734;BMP280;62039;50.000;9.064;2022-12-01T10:48:06;101158.63;;;4.94
73734;BMP280;62039;50.000;9.064;2022-12-01T10:50:34;101163.59;;;4.97
73734;BMP280;62039;50.000;9.064;2022-12-01T10:53:01;101158.00;;;5.03
73734;BMP280;62039;50.000;9.064;2022-12-01T10:55:30;101157.59;;;5.09
73734;BMP280;62039;50.000;9.064;2022-12-01T10:57:59;101153.06;;;5.13
73734;BMP280;62039;50.000;9.064;2022-12-01T11:00:37;101151.81;;;5.19
73734;BMP280;62039;50.000;9.064;2022-12-01T11:03:30;101145.47;;;5.23
73734;BMP280;62039;50.000;9.064;2022-12-01T11:05:58;101148.56;;;5.28
73734;BMP280;62039;50.000;9.064;2022-12-01T11:08:31;101147.44;;;5.32
73734;BMP280;62039;50.000;9.064;2022-12-01T11:10:59;101141.22;;;5.34
73734;BMP280;62039;50.000;9.064;2022-12-01T11:13:28;101140.91;;;5.39
73734;BMP280;62039;50.000;9.064;2022-12-01T11:15:58;101138.09;;;5.42
73734;BMP280;62039;50.000;9.064;2022-12-01T11:18:28;101135.19;;;5.46
73734;BMP280;62039;50.000;9.064;2022-12-01T11:21:06;101142.53;;;5.53
73734;BMP280;62039;50.000;9.064;2022-12-01T11:23:35;101131.25;;;5.54
73734;BMP280;62039;50.000;9.064;2022-12-01T11:26:06;101131.84;;;5.57
73734;BMP280;62039;50.000;9.064;2022-12-01T11:28:36;101132.44;;;5.61
73734;BMP280;62039;50.000;9.064;2022-12-01T11:31:06;101127.03;;;5.64
73734;BMP280;62039;50.000;9.064;2022-12-01T11:33:43;101132.81;;;5.67
73734;BMP280;62039;50.000;9.064;2022-12-01T11:36:18;101128.38;;;5.69
73734;BMP280;62039;50.000;9.064;2022-12-01T11:38:46;101128.16;;;5.72
73734;BMP280;62039;50.000;9.064;2022-12-01T11:41:24;101121.81;;;5.76
73734;BMP280;62039;50.000;9.064;2022-12-01T11:43:52;101119.94;;;5.78
73734;BMP280;62039;50.000;9.064;2022-12-01T11:46:31;101118.09;;;5.80
73734;BMP280;62039;50.000;9.064;2022-12-01T11:48:58;101112.91;;;5.80
73734;BMP280;62039;50.000;9.064;2022-12-01T11:51:28;101112.91;;;5.80
73734;BMP280;62039;50.000;9.064;2022-12-01T11:54:05;101115.59;;;5.79
73734;BMP280;62039;50.000;9.064;2022-12-01T11:56:32;101111.34;;;5.78
73734;BMP280;62039;50.000;9.064;2022-12-01T11:59:00;101107.91;;;5.77
73734;BMP280;62039;50.000;9.064;2022-12-01T12:01:35;101110.41;;;5.79
73734;BMP280;62039;50.000;9.064;2022-12-01T12:04:15;101109.56;;;5.78
73734;BMP280;62039;50.000;9.064;2022-12-01T12:06:51;101105.22;;;5.79
73734;BMP280;62039;50.000;9.064;2022-12-01T12:09:31;101104.28;;;5.80
73734;BMP280;62039;50.000;9.064;2022-12-01T12:12:06;101106.06;;;5.79
73734;BMP280;62039;50.000;9.064;2022-12-01T12:14:51;101101.56;;;5.81
73734;BMP280;62039;50.000;9.064;2022-12-01T12:17:32;101101.56;;;5.81
73734;BMP280;62039;50.000;9.064;2022-12-01T12:20:20;101101.78;;;5.78
73734;BMP280;62039;50.000;9.064;2022-12-01T12:22:58;101095.69;;;5.79
73734;BMP280;62039;50.000;9.064;2022-12-01T12:25:49;101094.94;;;5.77
73734;BMP280;62039;50.000;9.064;2022-12-01T12:28:30;101085.31;;;5.79
73734;BMP280;62039;50.000;9.064;2022-12-01T12:31:07;101085.41;;;5.78
73734;BMP280;62039;50.000;9.064;2022-12-01T12:33:50;101082.91;;;5.76
73734;BMP280;62039;50.000;9.064;2022-12-01T12:36:26;101075.13;;;5.76
73734;BMP280;62039;50.000;9.064;2022-12-01T12:39:09;101080.31;;;5.76
73734;BMP280;62039;50.000;9.064;2022-12-01T12:41:44;101076.91;;;5.76
73734;BMP280;62039;50.000;9.064;2022-12-01T12:44:28;101081.97;;;5.77
73734;BMP280;62039;50.000;9.064;2022-12-01T12:47:15;101080.94;;;5.80
73734;BMP280;62039;50.000;9.064;2022-12-01T12:49:49;101079.06;;;5.82
73734;BMP280;62039;50.000;9.064;2022-12-01T12:52:23;101081.53;;;5.83
73734;BMP280;62039;50.000;9.064;2022-12-01T12:54:54;101078.00;;;5.84
73734;BMP280;62039;50.000;9.064;2022-12-01T12:57:26;101076.97;;;5.87
73734;BMP280;62039;50.000;9.064;2022-12-01T12:59:57;101077.66;;;5.89
73734;BMP280;62039;50.000;9.064;2022-12-01T13:02:30;101077.56;;;5.91
73734;BMP280;62039;50.000;9.064;2022-12-01T13:05:04;101080.16;;;5.91
73734;BMP280;62039;50.000;9.064;2022-12-01T13:07:36;101086.06;;;5.93
73734;BMP280;62039;50.000;9.064;2022-12-01T13:10:13;101067.91;;;5.93
73734;BMP280;62039;50.000;9.064;2022-12-01T13:12:47;101077.47;;;5.92
73734;BMP280;62039;50.000;9.064;2022-12-01T13:15:16;101079.31;;;5.90
73734;BMP280;62039;50.000;9.064;2022-12-01T13:17:47;101071.44;;;5.92
73734;BMP280;62039;50.000;9.064;2022-12-01T13:20:26;101069.69;;;5.92
73734;BMP280;62039;50.000;9.064;2022-12-01T13:22:54;101081.72;;;5.93
73734;BMP280;62039;50.000;9.064;2022-12-01T13:25:25;101070.38;;;5.94
73734;BMP280;62039;50.000;9.064;2022-12-01T13:27:54;101070.25;;;5.96
73734;BMP280;62039;50.000;9.064;2022-12-01T13:30:23;101071.19;;;5.95
73734;BMP280;62039;50.000;9.064;2022-12-01T13:32:57;101067.66;;;5.96
73734;BMP280;62039;50.000;9.064;2022-12-01T13:35:29;101068.59;;;5.95
73734;BMP280;62039;50.000;9.064;2022-12-01T13:38:16;101063.56;;;5.93
73734;BMP280;62039;50.000;9.064;2022-12-01T13:40:43;101053.03;;;5.95
73734;BMP280;62039;50.000;9.064;2022-12-01T13:43:16;101062.38;;;5.97
73734;BMP280;62039;50.000;9.064;2022-12-01T13:45:43;101062.38;;;5.97
73734;BMP280;62039;50.000;9.064;2022-12-01T13:48:26;101058.03;;;5.98
73734;BMP280;62039;50.000;9.064;2022-12-01T13:50:58;101061.34;;;6.00
73734;BMP280;62039;50.000;9.064;2022-12-01T13:53:30;101058.75;;;6.00
73734;BMP280;62039;50.000;9.064;2022-12-01T13:58:48;101051.78;;;6.00
73734;BMP280;62039;50.000;9.064;2022-12-01T14:01:41;101047.44;;;6.01
73734;BMP280;62039;50.000;9.064;2022-12-01T14:04:28;101043.19;;;6.00
73734;BMP280;62039;50.000;9.064;2022-12-01T14:07:23;101038.00;;;6.00
73734;BMP280;62039;50.000;9.064;2022-12-01T14:09:52;101035.41;;;6.00
73734;BMP280;62039;50.000;9.064;2022-12-01T14:12:25;101039.75;;;5.99
73734;BMP280;62039;50.000;9.064;2022-12-01T14:14:56;101035.41;;;6.00
73734;BMP280;62039;50.000;9.064;2022-12-01T14:17:27;101034.56;;;5.99
73734;BMP280;62039;50.000;9.064;2022-12-01T14:19:54;101038.00;;;6.00
73734;BMP280;62039;50.000;9.064;2022-12-01T14:22:35;101035.41;;;6.00
73734;BMP280;62039;50.000;9.064;2022-12-01T14:25:03;101031.03;;;6.00
73734;BMP280;62039;50.000;9.064;2022-12-01T14:27:38;101033.75;;;5.99
73734;BMP280;62039;50.000;9.064;2022-12-01T14:33:44;101037.47;;;5.95
73734;BMP280;62039;50.000;9.064;2022-12-01T14:36:26;101030.53;;;5.95